Time;durP1;ratioP1;P1;durP2;ratioP2;P2;SDS_P1;SDS_P2;PMS_P1;PMS_P2;Temp;Humidity;BMP_temperature;BMP_pressure;BME280_temperature;BME280_humidity;BME280_pressure;Samples;Min_cycle;Max_cycle;Signal;HPM_P1;HPM_P2
2022/12/19 00:01:25;;;;;;;14.77;6.72;;;;;;;-0.08;74.97;93827.09;2074205;69;20574;-73
2022/12/19 00:03:56;;;;;;;10.73;5.50;;;;;;;0.09;74.93;93823.44;2074277;69;20262;-73
2022/12/19 00:06:23;;;;;;;11.98;6.30;;;;;;;-0.12;75.20;93806.50;2074375;69;20243;-73
2022/12/19 00:08:51;;;;;;;12.77;5.85;;;;;;;0.04;74.67;93805.59;2074211;69;20230;-73
2022/12/19 00:11:18;;;;;;;10.45;4.75;;;;;;;0.11;74.55;93796.75;2074222;69;20150;-71
2022/12/19 00:13:44;;;;;;;10.75;5.03;;;;;;;0.13;74.38;93793.47;2074339;69;20274;-71
2022/12/19 00:16:13;;;;;;;9.80;4.55;;;;;;;0.21;74.59;93811.75;2074142;69;20183;-71
2022/12/19 00:18:41;;;;;;;7.90;4.28;;;;;;;0.28;74.24;93818.03;2074216;69;20151;-72
2022/12/19 00:21:09;;;;;;;10.30;5.65;;;;;;;0.10;75.02;93824.97;2074265;69;20179;-73
2022/12/19 00:23:35;;;;;;;10.68;5.07;;;;;;;0.19;74.48;93822.63;2074117;69;20180;-72
2022/12/19 00:26:14;;;;;;;11.68;4.90;;;;;;;0.34;73.88;93832.56;2073999;69;20166;-72
2022/12/19 00:28:42;;;;;;;9.82;5.10;;;;;;;0.05;75.51;93834.06;2074127;69;20187;-72
2022/12/19 00:31:08;;;;;;;9.82;5.15;;;;;;;0.15;74.98;93815.88;2074358;69;20185;-71
2022/12/19 00:33:34;;;;;;;8.48;4.93;;;;;;;0.25;74.71;93830.88;2071320;69;20481;-72
2022/12/19 00:36:01;;;;;;;8.30;4.20;;;;;;;0.37;73.58;93837.09;2071543;69;20171;-72
2022/12/19 00:38:28;;;;;;;10.80;5.78;;;;;;;0.11;75.34;93826.47;2071430;69;20740;-72
2022/12/19 00:40:54;;;;;;;10.98;5.20;;;;;;;0.05;76.35;93823.75;2071432;69;20262;-72
2022/12/19 00:43:20;;;;;;;10.23;4.93;;;;;;;0.17;75.46;93807.78;2075021;69;20128;-72
2022/12/19 00:45:46;;;;;;;9.00;5.10;;;;;;;0.05;76.21;93798.81;2071591;69;20240;-73
2022/12/19 00:48:12;;;;;;;10.00;4.93;;;;;;;-0.03;76.47;93806.19;2071501;69;20144;-72
2022/12/19 00:50:38;;;;;;;9.95;5.07;;;;;;;0.14;76.19;93811.59;2071440;69;20179;-73
2022/12/19 00:53:04;;;;;;;8.98;5.03;;;;;;;0.04;76.44;93807.63;2074839;69;20201;-73
2022/12/19 00:55:32;;;;;;;10.13;5.28;;;;;;;0.17;76.13;93791.16;2071324;69;20150;-73
2022/12/19 00:57:58;;;;;;;9.48;4.72;;;;;;;0.23;75.92;93795.41;2071151;69;20160;-73
2022/12/19 01:00:24;;;;;;;11.05;5.10;;;;;;;0.25;75.68;93808.72;2071347;69;20144;-73
2022/12/19 01:02:52;;;;;;;8.85;5.15;;;;;;;0.35;75.45;93818.19;2074640;69;20694;-73
2022/12/19 01:05:18;;;;;;;9.75;5.00;;;;;;;0.29;75.73;93828.56;2074764;69;20183;-73
2022/12/19 01:07:47;;;;;;;9.52;5.25;;;;;;;0.16;76.35;93831.94;2074818;69;20175;-73
2022/12/19 01:10:13;;;;;;;11.00;4.82;;;;;;;-0.05;76.96;93830.84;2074686;69;20209;-73
2022/12/19 01:12:44;;;;;;;8.43;5.10;;;;;;;-0.15;77.87;93821.38;2074705;69;20164;-73
2022/12/19 01:15:11;;;;;;;11.23;5.27;;;;;;;0.00;77.50;93819.00;2074816;69;20564;-73
2022/12/19 01:17:37;;;;;;;10.57;5.53;;;;;;;0.29;76.29;93817.50;2074855;69;20200;-73
2022/12/19 01:20:03;;;;;;;8.52;5.03;;;;;;;0.40;75.63;93814.63;2071379;69;20237;-72
2022/12/19 01:22:29;;;;;;;8.88;4.80;;;;;;;0.43;75.56;93810.06;2074291;69;20152;-72
2022/12/19 01:24:55;;;;;;;8.82;4.85;;;;;;;0.37;75.34;93799.06;2074808;69;20154;-72
2022/12/19 01:27:20;;;;;;;9.48;5.00;;;;;;;0.28;76.44;93787.56;2071655;69;20171;-73
2022/12/19 01:29:46;;;;;;;9.20;4.70;;;;;;;0.28;76.08;93793.84;2071374;69;20243;-73
2022/12/19 01:32:11;;;;;;;11.05;5.70;;;;;;;0.22;76.68;93784.81;2071322;69;20254;-72
2022/12/19 01:34:37;;;;;;;13.00;5.65;;;;;;;0.25;75.82;93787.31;2068589;69;20180;-73
2022/12/19 01:37:02;;;;;;;15.05;5.88;;;;;;;0.39;75.75;93792.97;2074789;69;20167;-73
2022/12/19 01:39:28;;;;;;;10.68;5.47;;;;;;;0.35;75.92;93792.50;2074581;69;20148;-73
2022/12/19 01:41:54;;;;;;;12.52;5.78;;;;;;;0.30;75.71;93799.59;2074653;69;20168;-73
2022/12/19 01:44:19;;;;;;;11.98;5.25;;;;;;;0.18;76.24;93792.66;2074371;69;20286;-72
2022/12/19 01:46:48;;;;;;;10.50;5.38;;;;;;;0.31;75.84;93801.09;2074539;69;20152;-72
2022/12/19 01:49:26;;;;;;;8.07;4.13;;;;;;;0.35;76.44;93782.19;2071203;69;20162;-72
2022/12/19 01:51:57;;;;;;;6.78;4.00;;;;;;;0.50;75.87;93773.47;2074627;69;20144;-73
2022/12/19 01:54:30;;;;;;;10.60;4.45;;;;;;;0.08;76.42;93764.53;2071120;69;20164;-73
2022/12/19 01:57:00;;;;;;;7.72;4.32;;;;;;;0.24;77.18;93791.34;2074789;69;20152;-73
2022/12/19 01:59:45;;;;;;;8.40;4.38;;;;;;;0.40;76.02;93789.69;2071123;69;20155;-73
2022/12/19 02:02:45;;;;;;;8.93;4.13;;;;;;;0.36;75.33;93794.75;2070940;69;20144;-72
2022/12/19 02:05:11;;;;;;;8.55;4.13;;;;;;;0.29;76.59;93784.25;2073342;69;20225;-72
2022/12/19 02:07:38;;;;;;;7.35;3.50;;;;;;;0.37;76.00;93782.44;2068592;69;20144;-72
2022/12/19 02:10:04;;;;;;;7.50;3.50;;;;;;;0.42;75.73;93780.88;2071124;69;20247;-72
2022/12/19 02:12:36;;;;;;;6.25;3.20;;;;;;;0.45;76.55;93779.81;2070847;69;20171;-73
2022/12/19 02:15:04;;;;;;;6.75;3.40;;;;;;;0.48;75.57;93781.56;2070967;69;20170;-73
2022/12/19 02:17:34;;;;;;;7.20;4.03;;;;;;;0.08;77.91;93783.94;2071133;69;20212;-75
2022/12/19 02:20:34;;;;;;;8.18;4.40;;;;;;;0.27;76.81;93795.09;2074432;69;20151;-73
2022/12/19 02:23:42;;;;;;;7.30;4.10;;;;;;;0.25;77.72;93781.03;2071067;69;20243;-73
2022/12/19 02:26:26;;;;;;;8.05;4.13;;;;;;;0.44;76.21;93770.00;2074341;69;20183;-72
2022/12/19 02:28:58;;;;;;;9.70;5.10;;;;;;;0.52;75.73;93761.88;2071118;69;20150;-71
2022/12/19 02:31:33;;;;;;;8.32;4.40;;;;;;;0.38;76.02;93766.56;2074332;69;20155;-72
2022/12/19 02:34:20;;;;;;;6.28;3.58;;;;;;;0.33;77.14;93756.28;2071098;69;20140;-73
2022/12/19 02:37:00;;;;;;;7.47;3.78;;;;;;;0.48;76.75;93740.75;2071291;69;20156;-73
2022/12/19 02:39:48;;;;;;;6.63;3.30;;;;;;;0.66;75.94;93753.16;2071103;69;20151;-73
2022/12/19 02:42:25;;;;;;;8.13;3.45;;;;;;;0.46;77.02;93748.84;2071142;69;20238;-73
2022/12/19 02:44:52;;;;;;;8.52;4.90;;;;;;;0.56;76.28;93754.78;2071217;69;20156;-73
2022/12/19 02:47:20;;;;;;;7.85;4.53;;;;;;;0.66;76.09;93760.72;2071222;69;20167;-73
2022/12/19 02:49:46;;;;;;;7.68;4.22;;;;;;;0.75;75.28;93761.09;2071135;69;20651;-73
2022/12/19 02:52:31;;;;;;;7.68;4.40;;;;;;;0.42;77.25;93765.00;2074701;69;20143;-72
2022/12/19 02:55:10;;;;;;;9.13;3.95;;;;;;;0.69;76.72;93779.09;2070878;69;20175;-73
2022/12/19 02:57:49;;;;;;;7.50;4.63;;;;;;;0.72;76.17;93772.47;2071232;69;20132;-74
2022/12/19 03:00:24;;;;;;;6.43;3.80;;;;;;;0.59;76.46;93753.72;2074135;69;20237;-74
2022/12/19 03:03:06;;;;;;;6.80;3.85;;;;;;;0.67;76.66;93764.97;2073836;69;20228;-74
2022/12/19 03:05:31;;;;;;;6.82;3.47;;;;;;;0.75;76.01;93769.41;2075054;69;20221;-75
2022/12/19 03:08:12;;;;;;;8.05;4.60;;;;;;;0.63;76.69;93761.75;2071262;69;20591;-74
2022/12/19 03:10:59;;;;;;;9.13;4.38;;;;;;;0.57;76.99;93759.03;2074535;69;20167;-74
2022/12/19 03:13:30;;;;;;;7.05;4.18;;;;;;;0.61;76.64;93761.53;2071332;69;20144;-74
2022/12/19 03:15:58;;;;;;;7.88;4.18;;;;;;;0.65;76.66;93756.44;2071278;69;20160;-74
2022/12/19 03:18:24;;;;;;;6.90;3.92;;;;;;;0.77;76.62;93758.56;2074647;69;20240;-74
2022/12/19 03:21:07;;;;;;;6.82;3.67;;;;;;;0.85;75.49;93766.28;2074659;69;20183;-74
2022/12/19 03:23:33;;;;;;;7.05;4.07;;;;;;;0.27;77.93;93761.09;2074611;69;20140;-74
2022/12/19 03:26:06;;;;;;;11.20;5.70;;;;;;;0.41;78.65;93746.09;2074563;69;20178;-75
2022/12/19 03:28:43;;;;;;;6.75;3.95;;;;;;;0.64;77.78;93749.38;2074635;69;20148;-73
2022/12/19 03:31:11;;;;;;;6.47;3.50;;;;;;;0.65;77.11;93750.91;2071284;69;20175;-73
2022/12/19 03:33:39;;;;;;;9.95;4.97;;;;;;;0.79;76.36;93737.91;2074739;69;20144;-74
2022/12/19 03:36:09;;;;;;;5.63;3.28;;;;;;;0.89;76.07;93750.13;2071262;69;20148;-74
2022/12/19 03:38:37;;;;;;;6.18;3.50;;;;;;;0.88;75.17;93749.38;2074617;69;20186;-75
2022/12/19 03:41:06;;;;;;;5.07;2.83;;;;;;;0.90;75.57;93760.69;2074483;69;20135;-74
2022/12/19 03:43:33;;;;;;;5.45;2.90;;;;;;;0.87;75.45;93758.97;2074737;69;20152;-74
2022/12/19 03:46:10;;;;;;;6.38;3.17;;;;;;;0.79;74.21;93760.06;2074569;69;20148;-75
2022/12/19 03:48:44;;;;;;;6.70;4.00;;;;;;;0.57;74.85;93775.66;2074609;69;20144;-74
2022/12/19 03:51:19;;;;;;;6.70;3.88;;;;;;;0.77;75.78;93772.41;2074145;69;20152;-74
2022/12/19 03:54:03;;;;;;;6.03;3.58;;;;;;;0.88;75.61;93768.03;2074584;69;20182;-74
2022/12/19 03:56:49;;;;;;;6.50;3.45;;;;;;;0.78;75.34;93753.78;2074514;69;20175;-73
2022/12/19 03:59:20;;;;;;;7.38;3.92;;;;;;;0.90;75.41;93757.16;2071237;69;20143;-74
2022/12/19 04:01:46;;;;;;;11.70;6.03;;;;;;;0.85;76.28;93744.13;2074667;69;20156;-74
2022/12/19 04:04:13;;;;;;;9.27;5.45;;;;;;;0.91;76.10;93756.63;2074634;69;20234;-73
2022/12/19 04:06:41;;;;;;;8.07;5.30;;;;;;;1.00;75.51;93747.94;2074826;69;20190;-74
2022/12/19 04:09:09;;;;;;;8.07;5.43;;;;;;;1.01;75.20;93759.81;2075210;69;20201;-73
2022/12/19 04:11:40;;;;;;;7.88;5.00;;;;;;;1.01;74.70;93766.09;2075018;69;20285;-74
2022/12/19 04:14:16;;;;;;;7.65;4.18;;;;;;;0.96;75.24;93769.69;2075033;69;20171;-74
2022/12/19 04:16:56;;;;;;;6.95;3.78;;;;;;;0.69;77.13;93770.78;2075192;69;20246;-74
2022/12/19 04:19:46;;;;;;;6.47;3.67;;;;;;;0.99;75.56;93767.88;2075121;69;20144;-73
2022/12/19 04:22:21;;;;;;;6.07;3.20;;;;;;;0.82;76.21;93772.88;2075212;69;20583;-74
2022/12/19 04:24:50;;;;;;;6.40;3.35;;;;;;;0.94;75.24;93771.47;2074885;69;20231;-73
2022/12/19 04:27:17;;;;;;;5.28;2.75;;;;;;;1.08;75.14;93775.09;2075082;69;20142;-74
2022/12/19 04:29:43;;;;;;;4.28;2.53;;;;;;;1.00;76.48;93761.06;2074993;69;20167;-73
2022/12/19 04:32:10;;;;;;;5.35;3.00;;;;;;;1.04;75.85;93766.31;2075177;69;20473;-73
2022/12/19 04:34:36;;;;;;;6.25;3.55;;;;;;;1.06;74.69;93770.09;2075081;69;20215;-74
2022/12/19 04:37:02;;;;;;;8.35;3.20;;;;;;;1.20;74.37;93755.03;2075193;69;20480;-73
2022/12/19 04:39:28;;;;;;;5.40;2.75;;;;;;;1.34;74.61;93752.31;2074888;69;20167;-72
2022/12/19 04:41:54;;;;;;;5.05;3.03;;;;;;;1.31;75.27;93758.91;2074996;69;20234;-73
2022/12/19 04:44:20;;;;;;;4.25;2.88;;;;;;;1.13;76.14;93754.84;2075004;69;20204;-73
2022/12/19 04:46:46;;;;;;;5.20;3.17;;;;;;;1.14;76.27;93757.09;2074973;69;20151;-73
2022/12/19 04:49:11;;;;;;;7.07;3.50;;;;;;;1.13;76.47;93752.84;2075086;69;20155;-73
2022/12/19 04:51:37;;;;;;;5.75;2.92;;;;;;;1.19;76.33;93756.31;2075112;69;20139;-73
2022/12/19 04:54:04;;;;;;;4.60;2.50;;;;;;;1.16;76.05;93748.28;2074796;69;20212;-74
2022/12/19 04:56:31;;;;;;;7.25;3.58;;;;;;;1.22;74.21;93749.69;2074906;69;20602;-73
2022/12/19 04:58:57;;;;;;;7.78;3.55;;;;;;;1.26;73.78;93750.13;2074927;69;20152;-74
2022/12/19 05:01:23;;;;;;;6.68;3.60;;;;;;;1.45;72.53;93750.13;2074463;69;20198;-73
2022/12/19 05:03:48;;;;;;;5.85;2.90;;;;;;;1.36;73.99;93746.97;2075071;69;20650;-73
2022/12/19 05:06:14;;;;;;;5.80;3.03;;;;;;;1.41;74.30;93741.34;2074957;69;20176;-75
2022/12/19 05:08:41;;;;;;;5.63;3.15;;;;;;;1.42;74.93;93745.66;2074925;69;20148;-74
2022/12/19 05:11:09;;;;;;;6.65;2.90;;;;;;;1.45;75.17;93750.13;2071541;69;20166;-73
2022/12/19 05:13:34;;;;;;;5.22;3.13;;;;;;;1.39;75.27;93743.91;2075068;69;20624;-73
2022/12/19 05:16:03;;;;;;;8.50;4.13;;;;;;;1.46;74.31;93745.31;2074850;69;20219;-73
2022/12/19 05:18:29;;;;;;;12.30;5.70;;;;;;;1.19;75.26;93741.66;2074958;69;20167;-73
2022/12/19 05:20:55;;;;;;;10.13;4.53;;;;;;;1.43;74.57;93749.16;2075043;69;20241;-73
2022/12/19 05:23:21;;;;;;;8.63;4.47;;;;;;;1.49;73.89;93752.59;2075030;69;20160;-73
2022/12/19 05:25:47;;;;;;;6.75;3.70;;;;;;;1.30;75.52;93757.41;2074907;69;20186;-73
2022/12/19 05:28:14;;;;;;;8.27;4.40;;;;;;;1.39;74.82;93754.28;2074752;69;20238;-74
2022/12/19 05:30:39;;;;;;;6.18;3.20;;;;;;;1.38;75.21;93750.75;2075086;69;20128;-74
2022/12/19 05:33:05;;;;;;;8.52;3.90;;;;;;;1.31;75.28;93747.81;2074927;69;20285;-73
2022/12/19 05:35:32;;;;;;;6.85;3.90;;;;;;;1.21;75.59;93739.13;2074857;69;20166;-73
2022/12/19 05:37:58;;;;;;;6.40;3.70;;;;;;;1.51;74.75;93759.13;2074808;69;20164;-73
2022/12/19 05:40:23;;;;;;;5.22;3.28;;;;;;;1.52;74.69;93757.84;2074759;69;20136;-73
2022/12/19 05:42:49;;;;;;;6.47;3.45;;;;;;;1.57;74.98;93756.28;2074933;69;20178;-73
2022/12/19 05:45:15;;;;;;;4.65;2.63;;;;;;;1.53;75.11;93764.16;2074954;69;20303;-73
2022/12/19 05:47:42;;;;;;;4.78;2.38;;;;;;;1.45;75.81;93755.69;2074735;69;20132;-73
2022/12/19 05:50:08;;;;;;;5.35;2.70;;;;;;;1.42;75.12;93742.09;2074818;69;20187;-73
2022/12/19 05:52:37;;;;;;;7.00;3.97;;;;;;;1.49;74.96;93742.25;2074821;69;20140;-73
2022/12/19 05:55:04;;;;;;;5.53;3.13;;;;;;;1.49;74.87;93756.13;2074736;69;20151;-72
2022/12/19 05:57:30;;;;;;;5.68;2.95;;;;;;;1.57;74.38;93749.97;2074890;69;20167;-72
2022/12/19 05:59:55;;;;;;;10.35;6.60;;;;;;;1.25;75.33;93747.91;2074926;69;20210;-74
2022/12/19 06:02:22;;;;;;;11.50;5.60;;;;;;;1.26;76.22;93747.38;2074788;69;20571;-73
2022/12/19 06:04:47;;;;;;;13.23;6.30;;;;;;;1.36;75.80;93760.84;2074758;69;20142;-73
2022/12/19 06:07:13;;;;;;;10.88;5.57;;;;;;;1.39;75.32;93760.56;2074894;69;20538;-74
2022/12/19 06:09:38;;;;;;;14.73;7.78;;;;;;;1.33;75.96;93759.13;2074744;69;20129;-73
2022/12/19 06:12:04;;;;;;;13.50;7.65;;;;;;;1.30;75.67;93752.63;2074765;69;20171;-73
2022/12/19 06:14:30;;;;;;;8.95;4.30;;;;;;;1.23;75.49;93761.53;2074673;69;20151;-74
2022/12/19 06:16:55;;;;;;;8.48;4.75;;;;;;;1.30;74.78;93769.25;2074910;69;20144;-75
2022/12/19 06:19:21;;;;;;;11.55;6.15;;;;;;;1.24;75.57;93766.56;2074671;69;20152;-75
2022/12/19 06:21:47;;;;;;;13.75;7.70;;;;;;;1.38;75.60;93777.75;2074738;69;20144;-75
2022/12/19 06:24:12;;;;;;;22.50;11.75;;;;;;;1.45;74.94;93777.88;2074660;69;20144;-75
2022/12/19 06:26:38;;;;;;;27.25;12.68;;;;;;;1.50;74.74;93776.31;2074840;69;20159;-74
2022/12/19 06:29:03;;;;;;;15.45;8.93;;;;;;;1.48;75.23;93781.63;2074519;69;20171;-74
2022/12/19 06:31:29;;;;;;;20.20;9.75;;;;;;;1.49;75.09;93788.69;2074862;69;20465;-72
2022/12/19 06:33:55;;;;;;;18.17;9.32;;;;;;;1.45;75.11;93783.44;2074664;69;20178;-75
2022/12/19 06:36:26;;;;;;;18.00;9.38;;;;;;;1.39;75.66;93782.75;2074709;69;20144;-75
2022/12/19 06:38:53;;;;;;;18.48;9.55;;;;;;;1.52;75.45;93782.09;2071430;69;20164;-74
2022/12/19 06:44:06;;;;;;;13.70;8.20;;;;;;;1.42;75.60;93800.38;2074679;69;20128;-74
2022/12/19 06:46:33;;;;;;;13.25;7.32;;;;;;;1.49;75.20;93792.22;2074705;69;20507;-74
2022/12/19 06:48:59;;;;;;;14.10;8.00;;;;;;;1.55;74.97;93788.59;2074699;69;20241;-75
2022/12/19 06:51:25;;;;;;;16.42;9.02;;;;;;;1.37;75.67;93790.09;2074757;69;20156;-75
2022/12/19 06:53:50;;;;;;;25.30;12.63;;;;;;;1.20;77.80;93796.63;2074869;69;20346;-75
2022/12/19 06:56:17;;;;;;;31.38;16.83;;;;;;;1.47;76.28;93778.13;2074714;69;20610;-74
2022/12/19 06:58:42;;;;;;;42.63;20.55;;;;;;;1.61;75.62;93786.50;2074726;69;20148;-74
2022/12/19 07:01:47;;;;;;;37.10;18.20;;;;;;;1.56;76.02;93790.88;2074681;69;20194;-74
2022/12/19 07:04:17;;;;;;;37.17;18.20;;;;;;;1.54;76.43;93793.41;2071281;69;20223;-72
2022/12/19 07:06:42;;;;;;;34.80;17.25;;;;;;;1.56;76.56;93782.53;2074758;69;20209;-72
2022/12/19 07:09:08;;;;;;;24.42;13.93;;;;;;;1.58;76.38;93799.41;2074623;69;20173;-72
2022/12/19 07:11:34;;;;;;;24.08;13.25;;;;;;;1.42;77.11;93801.16;2074671;69;20224;-72
2022/12/19 07:13:59;;;;;;;26.60;13.32;;;;;;;1.58;76.60;93804.97;2074786;69;20186;-72
2022/12/19 07:16:26;;;;;;;23.63;10.88;;;;;;;1.49;77.56;93803.31;2074747;69;20591;-72
2022/12/19 07:18:51;;;;;;;18.80;11.00;;;;;;;1.49;77.02;93811.63;2071263;69;20144;-72
2022/12/19 07:21:17;;;;;;;21.00;10.27;;;;;;;1.43;77.22;93810.97;2074577;69;20233;-72
2022/12/19 07:23:43;;;;;;;20.83;11.30;;;;;;;1.56;77.40;93815.84;2074602;69;20147;-72
2022/12/19 07:26:09;;;;;;;16.40;9.98;;;;;;;1.65;77.13;93818.25;2074574;69;20246;-73
2022/12/19 07:28:36;;;;;;;15.30;9.52;;;;;;;1.62;77.00;93816.50;2074499;69;20215;-75
2022/12/19 07:31:02;;;;;;;19.45;9.82;;;;;;;1.42;78.43;93817.03;2074666;69;20595;-73
2022/12/19 07:33:27;;;;;;;21.17;12.38;;;;;;;1.72;77.15;93814.84;2074647;69;20151;-73
2022/12/19 07:35:53;;;;;;;34.08;18.05;;;;;;;1.80;77.07;93819.81;2074647;69;20139;-73
2022/12/19 07:38:19;;;;;;;36.80;21.25;;;;;;;1.88;76.60;93815.91;2074590;69;20221;-73
2022/12/19 07:40:44;;;;;;;22.85;13.93;;;;;;;1.86;77.09;93806.59;2074586;69;20136;-73
2022/12/19 07:43:10;;;;;;;11.05;6.88;;;;;;;1.97;76.72;93803.63;2075095;69;20143;-74
2022/12/19 07:45:37;;;;;;;35.28;20.23;;;;;;;1.54;78.62;93821.16;2071954;69;20158;-73
2022/12/19 07:48:05;;;;;;;34.10;18.40;;;;;;;1.88;77.71;93817.91;2075210;69;20231;-72
2022/12/19 07:50:30;;;;;;;28.23;17.13;;;;;;;1.95;76.93;93831.19;2075078;69;20155;-73
2022/12/19 07:52:57;;;;;;;33.30;18.20;;;;;;;1.86;77.67;93832.31;2075182;69;20140;-73
2022/12/19 07:55:23;;;;;;;36.83;18.50;;;;;;;2.11;76.67;93832.22;2075007;69;20144;-72
2022/12/19 07:57:49;;;;;;;32.53;19.52;;;;;;;2.19;76.36;93827.53;2075091;69;20245;-74
2022/12/19 08:00:15;;;;;;;23.45;13.77;;;;;;;2.24;76.19;93832.25;2075108;69;20569;-73
2022/12/19 08:02:41;;;;;;;14.23;8.20;;;;;;;2.27;76.34;93829.19;2075167;69;20233;-74
2022/12/19 08:05:07;;;;;;;10.57;6.03;;;;;;;2.45;75.51;93829.66;2075164;69;20235;-73
2022/12/19 08:07:32;;;;;;;10.85;5.85;;;;;;;2.53;75.04;93822.19;2075114;69;20154;-73
2022/12/19 08:09:58;;;;;;;27.58;13.95;;;;;;;2.29;76.17;93826.63;2075051;69;20576;-74
2022/12/19 08:12:23;;;;;;;24.52;12.90;;;;;;;2.45;76.37;93822.06;2075103;69;20233;-74
2022/12/19 08:14:49;;;;;;;25.25;13.25;;;;;;;2.57;75.67;93832.97;2075010;69;20147;-74
2022/12/19 08:17:15;;;;;;;20.85;11.98;;;;;;;2.38;76.84;93836.56;2075131;69;20162;-73
2022/12/19 08:19:40;;;;;;;13.43;7.72;;;;;;;2.41;77.41;93829.97;2075216;69;20187;-73
2022/12/19 08:22:06;;;;;;;30.95;18.75;;;;;;;2.59;76.55;93833.22;2074968;69;20200;-74
2022/12/19 08:24:32;;;;;;;21.25;12.40;;;;;;;2.72;76.37;93830.47;2074998;69;20138;-74
2022/12/19 08:26:57;;;;;;;11.43;5.55;;;;;;;2.80;75.45;93834.13;2075051;69;20287;-75
2022/12/19 08:29:23;;;;;;;7.90;4.32;;;;;;;2.86;75.25;93826.41;2074998;69;20163;-74
2022/12/19 08:31:49;;;;;;;10.68;4.22;;;;;;;2.87;75.26;93824.38;2074957;69;20194;-73
2022/12/19 08:34:15;;;;;;;24.48;15.88;;;;;;;2.56;76.95;93826.69;2075083;69;20269;-71
2022/12/19 08:36:41;;;;;;;28.20;15.77;;;;;;;2.87;75.79;93821.59;2074890;69;20238;-76
2022/12/19 08:39:07;;;;;;;23.55;14.10;;;;;;;2.94;75.77;93820.97;2074877;69;20306;-72
2022/12/19 08:41:32;;;;;;;19.00;11.27;;;;;;;3.09;75.06;93810.06;2074987;69;20602;-72
2022/12/19 08:43:58;;;;;;;17.45;9.90;;;;;;;2.88;76.08;93812.72;2074979;69;20218;-73
2022/12/19 08:46:24;;;;;;;17.70;10.38;;;;;;;3.12;75.47;93819.38;2075053;69;20145;-74
2022/12/19 08:48:49;;;;;;;14.60;9.30;;;;;;;3.13;75.25;93820.88;2071717;69;20297;-76
2022/12/19 08:51:16;;;;;;;21.00;11.73;;;;;;;3.19;75.29;93829.84;2074956;69;20543;-74
2022/12/19 08:53:42;;;;;;;20.73;12.75;;;;;;;3.20;74.65;93828.56;2074975;69;20230;-73
2022/12/19 08:56:14;;;;;;;18.50;11.98;;;;;;;3.28;75.08;93823.84;2074827;69;20164;-72
2022/12/19 08:58:40;;;;;;;21.20;13.40;;;;;;;3.24;74.64;93809.50;2075078;69;20144;-73
2022/12/19 09:01:09;;;;;;;21.58;12.35;;;;;;;3.35;74.79;93819.69;2074860;69;20174;-74
2022/12/19 09:03:36;;;;;;;22.90;13.23;;;;;;;2.99;75.75;93815.31;2075201;69;20156;-76
2022/12/19 09:06:06;;;;;;;21.02;13.00;;;;;;;3.17;75.79;93829.66;2075042;69;20140;-76
2022/12/19 09:08:33;;;;;;;20.70;12.30;;;;;;;3.18;75.92;93831.88;2074968;69;20156;-77
2022/12/19 09:11:05;;;;;;;20.70;12.45;;;;;;;3.34;75.31;93829.31;2074769;69;20175;-77
2022/12/19 09:13:32;;;;;;;19.13;10.80;;;;;;;3.37;74.73;93842.16;2075001;69;20179;-76
2022/12/19 09:16:03;;;;;;;16.17;9.88;;;;;;;3.50;74.86;93837.31;2075005;69;20174;-77
2022/12/19 09:18:30;;;;;;;22.30;12.95;;;;;;;3.48;74.79;93822.44;2074970;69;20250;-76
2022/12/19 09:20:57;;;;;;;20.75;12.63;;;;;;;3.49;74.95;93821.91;2074978;69;20144;-76
2022/12/19 09:23:27;;;;;;;25.90;12.82;;;;;;;3.44;74.77;93817.22;2074941;69;20139;-77
2022/12/19 09:25:54;;;;;;;33.50;15.93;;;;;;;3.60;74.32;93815.34;2075006;69;20136;-76
2022/12/19 09:28:20;;;;;;;16.83;9.82;;;;;;;3.49;74.34;93815.59;2074837;69;20147;-74
2022/12/19 09:30:54;;;;;;;15.23;7.18;;;;;;;3.65;73.81;93817.25;2075015;69;20162;-77
2022/12/19 09:33:20;;;;;;;29.05;16.65;;;;;;;3.38;75.13;93829.72;2075041;69;20239;-77
2022/12/19 09:35:53;;;;;;;27.98;16.00;;;;;;;3.69;74.22;93825.28;2074784;69;20487;-77
2022/12/19 09:38:22;;;;;;;23.80;13.90;;;;;;;3.65;74.31;93825.63;2074923;69;20235;-76
2022/12/19 09:40:56;;;;;;;23.23;12.70;;;;;;;3.65;74.41;93822.09;2074726;69;20155;-77
2022/12/19 09:43:44;;;;;;;28.13;12.32;;;;;;;3.66;74.22;93813.19;2074979;69;20576;-73
2022/12/19 09:46:17;;;;;;;25.30;12.75;;;;;;;3.03;77.52;93817.78;2075117;69;20163;-76
2022/12/19 09:48:52;;;;;;;24.52;13.20;;;;;;;3.58;75.59;93820.72;2074810;69;20147;-76
2022/12/19 09:51:35;;;;;;;26.10;12.80;;;;;;;3.55;75.14;93802.28;2074807;69;20144;-77
2022/12/19 09:54:09;;;;;;;24.15;11.05;;;;;;;3.87;74.75;93801.34;2074710;69;20293;-73
2022/12/19 09:56:39;;;;;;;17.83;10.68;;;;;;;4.13;74.04;93806.84;2074849;69;20144;-76
2022/12/19 09:59:18;;;;;;;20.00;11.05;;;;;;;4.12;73.69;93796.97;2074849;69;20232;-74
2022/12/19 10:01:59;;;;;;;18.88;9.80;;;;;;;4.30;73.41;93800.84;2074916;69;20663;-76
2022/12/19 10:04:28;;;;;;;17.27;10.52;;;;;;;4.22;73.99;93797.25;2071262;69;20151;-74
2022/12/19 10:06:54;;;;;;;23.15;13.15;;;;;;;4.14;74.29;93799.97;2074923;69;20144;-74
2022/12/19 10:09:22;;;;;;;23.30;13.45;;;;;;;4.27;73.81;93805.50;2071279;69;20220;-74
2022/12/19 10:11:54;;;;;;;31.40;16.25;;;;;;;4.24;73.15;93794.66;2074697;69;20163;-74
2022/12/19 10:14:34;;;;;;;31.23;16.35;;;;;;;4.49;72.64;93801.41;2074696;69;20588;-74
2022/12/19 10:17:29;;;;;;;23.50;12.68;;;;;;;4.48;73.22;93794.31;2074889;69;20230;-75
2022/12/19 10:20:25;;;;;;;21.20;12.50;;;;;;;4.76;72.65;93776.88;2071632;69;20560;-74
2022/12/19 10:23:20;;;;;;;84.32;39.00;;;;;;;4.74;72.86;93779.47;2074728;69;20627;-74
2022/12/19 10:25:59;;;;;;;42.65;22.67;;;;;;;4.87;72.27;93775.84;2068466;69;20152;-75
2022/12/19 10:28:40;;;;;;;38.33;20.02;;;;;;;4.75;72.13;93772.59;2074726;69;20183;-75
2022/12/19 10:31:34;;;;;;;38.15;22.02;;;;;;;4.83;71.91;93781.78;2074715;69;20147;-75
2022/12/19 10:34:23;;;;;;;56.50;28.33;;;;;;;4.93;71.82;93770.84;2074634;69;20132;-75
2022/12/19 10:36:52;;;;;;;43.67;24.73;;;;;;;4.95;71.36;93767.50;2074797;69;20275;-75
2022/12/19 10:39:50;;;;;;;28.67;15.57;;;;;;;5.09;71.34;93764.09;2074591;69;20579;-75
2022/12/19 10:42:30;;;;;;;21.67;11.93;;;;;;;5.21;70.91;93755.38;2064145;69;20246;-75
2022/12/19 10:44:58;;;;;;;26.92;13.82;;;;;;;5.38;71.33;93772.41;2074759;69;20132;-75
2022/12/19 10:47:24;;;;;;;41.40;20.63;;;;;;;5.71;70.04;93758.75;2074725;69;20140;-75
2022/12/19 10:49:49;;;;;;;31.38;17.63;;;;;;;5.79;70.09;93759.53;2074907;69;20144;-76
2022/12/19 10:52:47;;;;;;;28.50;16.73;;;;;;;5.98;69.66;93756.44;2074815;69;20148;-78
2022/12/19 10:55:26;;;;;;;32.20;18.52;;;;;;;5.98;69.01;93743.22;2071252;69;20192;-74
2022/12/19 10:57:51;;;;;;;38.08;19.65;;;;;;;5.84;69.63;93741.84;2071316;69;20136;-73
2022/12/19 11:00:18;;;;;;;39.60;21.70;;;;;;;6.11;69.43;93733.91;2071378;69;20197;-75
2022/12/19 11:02:46;;;;;;;32.60;19.50;;;;;;;6.09;68.55;93734.47;2071110;69;20146;-74
2022/12/19 11:05:27;;;;;;;27.25;15.75;;;;;;;6.40;68.57;93744.94;2071246;69;20240;-77
2022/12/19 11:08:05;;;;;;;25.75;15.80;;;;;;;6.33;68.13;93752.03;2071330;69;20140;-76
2022/12/19 11:10:41;;;;;;;25.35;15.43;;;;;;;6.44;67.63;93745.31;2071186;69;20205;-75
2022/12/19 11:13:47;;;;;;;34.92;17.85;;;;;;;6.41;67.82;93743.63;2071307;69;20233;-75
2022/12/19 11:16:33;;;;;;;27.67;17.17;;;;;;;6.56;67.99;93738.06;2071063;69;20150;-75
2022/12/19 11:18:58;;;;;;;29.35;17.60;;;;;;;6.73;67.48;93741.00;2071234;69;20227;-79
2022/12/19 11:21:28;;;;;;;38.45;20.13;;;;;;;6.50;66.57;93723.50;2071287;69;20160;-76
2022/12/19 11:24:09;;;;;;;28.40;15.20;;;;;;;6.63;67.55;93724.03;2071139;69;20602;-79
2022/12/19 11:26:44;;;;;;;23.52;14.63;;;;;;;6.93;66.66;93714.13;2071306;69;20136;-77
2022/12/19 11:29:39;;;;;;;22.23;13.23;;;;;;;6.95;66.58;93705.91;2071142;69;20702;-76
2022/12/19 11:32:24;;;;;;;25.52;11.60;;;;;;;6.83;66.59;93693.63;2069275;69;20204;-75
2022/12/19 11:34:50;;;;;;;30.08;14.05;;;;;;;6.92;66.87;93698.66;2071400;69;20179;-74
2022/12/19 11:37:29;;;;;;;34.05;17.60;;;;;;;6.96;66.08;93698.25;2071316;69;20136;-74
2022/12/19 11:40:03;;;;;;;24.30;15.43;;;;;;;7.02;65.82;93685.56;2071209;69;20143;-75
2022/12/19 11:42:34;;;;;;;22.13;14.60;;;;;;;7.12;66.12;93700.44;2071186;69;20556;-76
2022/12/19 11:45:18;;;;;;;25.52;16.42;;;;;;;7.19;65.58;93698.19;2071195;69;20144;-74
2022/12/19 11:47:55;;;;;;;26.80;16.02;;;;;;;7.28;65.10;93697.59;2071378;69;20549;-74
2022/12/19 11:50:29;;;;;;;28.92;17.00;;;;;;;7.35;65.08;93691.22;2071195;69;20160;-74
2022/12/19 11:53:14;;;;;;;28.10;18.25;;;;;;;7.27;65.02;93676.50;2071362;69;20152;-74